Time;durP1;ratioP1;P1;durP2;ratioP2;P2;SDS_P1;SDS_P2;PMS_P1;PMS_P2;Temp;Humidity;BMP_temperature;BMP_pressure;BME280_temperature;BME280_humidity;BME280_pressure;Samples;Min_cycle;Max_cycle;Signal;HPM_P1;HPM_P2
2023/05/03 00:01:08;;;;;;;14.70;9.77;;;7.60;99.90;;;;;;5040075;28;20113;-89
2023/05/03 00:03:55;;;;;;;17.75;9.82;;;7.50;99.90;;;;;;5049585;28;20041;-87
2023/05/03 00:06:43;;;;;;;14.40;10.00;;;7.50;99.90;;;;;;5037898;28;20046;-87
2023/05/03 00:09:34;;;;;;;16.83;10.02;;;7.50;99.90;;;;;;5032510;28;20111;-85
2023/05/03 00:12:21;;;;;;;15.68;9.88;;;7.50;99.90;;;;;;5019502;28;20045;-88
2023/05/03 00:15:09;;;;;;;20.77;11.00;;;7.50;1.00;;;;;;5033842;28;20073;-89
2023/05/03 00:17:57;;;;;;;16.33;10.30;;;7.40;1.00;;;;;;5033368;28;20064;-88
2023/05/03 00:20:44;;;;;;;18.17;10.32;;;7.30;1.00;;;;;;5031184;28;20045;-88
2023/05/03 00:23:31;;;;;;;16.90;10.32;;;7.40;34.40;;;;;;5015362;28;20056;-87
2023/05/03 00:26:22;;;;;;;18.80;10.07;;;7.30;92.20;;;;;;5031681;28;20072;-88
2023/05/03 00:29:10;;;;;;;14.85;9.55;;;7.20;99.90;;;;;;5022675;28;20053;-88
2023/05/03 00:31:58;;;;;;;14.63;9.93;;;7.20;99.90;;;;;;5019630;28;20103;-88
2023/05/03 00:34:46;;;;;;;16.80;9.82;;;7.20;99.90;;;;;;5030594;28;20057;-86
2023/05/03 00:37:33;;;;;;;19.05;10.63;;;7.10;1.00;;;;;;5033061;28;20044;-89
2023/05/03 00:40:20;;;;;;;21.85;10.02;;;7.20;1.00;;;;;;5032084;28;20372;-89
2023/05/03 00:43:13;;;;;;;14.35;10.02;;;7.20;99.90;;;;;;5031041;28;20116;-88
2023/05/03 00:46:02;;;;;;;15.07;10.82;;;7.20;99.90;;;;;;5038940;28;20053;-87
2023/05/03 00:49:02;;;;;;;18.17;10.45;;;7.30;99.90;;;;;;5037071;28;20460;-88
2023/05/03 00:51:53;;;;;;;16.85;10.27;;;7.20;99.90;;;;;;5038423;28;20056;-88
2023/05/03 00:54:41;;;;;;;18.27;10.32;;;7.20;1.00;;;;;;5034841;28;20076;-87
2023/05/03 00:57:29;;;;;;;16.52;10.07;;;7.10;1.00;;;;;;5035517;28;20198;-88
2023/05/03 01:00:16;;;;;;;13.13;9.57;;;7.00;1.00;;;;;;5016010;28;20049;-86
2023/05/03 01:03:04;;;;;;;17.98;10.10;;;7.00;43.00;;;;;;5046769;28;20345;-88
2023/05/03 01:06:10;;;;;;;17.48;10.75;;;6.90;99.90;;;;;;5045589;28;20137;-84
2023/05/03 01:09:02;;;;;;;15.90;11.15;;;6.70;99.90;;;;;;5059434;28;20053;-87
2023/05/03 01:12:11;;;;;;;19.77;11.50;;;6.70;99.90;;;;;;5045580;28;20120;-82
2023/05/03 01:15:05;;;;;;;16.90;10.63;;;6.70;99.90;;;;;;5044778;28;20045;-88
2023/05/03 01:18:06;;;;;;;23.90;12.48;;;6.70;1.00;;;;;;5039550;28;20044;-90
2023/05/03 01:20:55;;;;;;;21.05;12.05;;;6.80;99.90;;;;;;5027599;28;20049;-89
2023/05/03 01:23:58;;;;;;;22.65;13.23;;;6.70;1.00;;;;;;5034195;28;20077;-89
2023/05/03 01:26:48;;;;;;;21.25;12.73;;;6.70;99.90;;;;;;5023012;28;20042;-90
2023/05/03 01:29:40;;;;;;;26.15;13.05;;;6.70;99.90;;;;;;5040568;28;20064;-88
2023/05/03 01:32:35;;;;;;;21.20;11.95;;;6.70;99.90;;;;;;5036111;28;20049;-87
2023/05/03 01:35:22;;;;;;;22.35;12.70;;;6.60;1.00;;;;;;5047371;28;20056;-85
2023/05/03 01:38:10;;;;;;;23.80;13.07;;;6.50;6.60;;;;;;5035558;28;20049;-88
2023/05/03 01:41:04;;;;;;;19.38;12.80;;;6.50;99.90;;;;;;5035719;28;20045;-89
2023/05/03 01:43:56;;;;;;;22.15;12.55;;;6.60;1.00;;;;;;5038263;28;20045;-87
2023/05/03 01:46:44;;;;;;;20.58;12.32;;;6.50;1.00;;;;;;5032801;28;20135;-85
2023/05/03 01:49:32;;;;;;;25.73;13.90;;;6.50;1.00;;;;;;5047908;28;20058;-86
2023/05/03 01:52:19;;;;;;;25.70;13.85;;;6.40;51.10;;;;;;5051400;28;20128;-89
2023/05/03 01:55:07;;;;;;;25.75;14.85;;;6.40;99.90;;;;;;5043301;28;20057;-86
2023/05/03 01:57:54;;;;;;;31.90;15.10;;;6.40;99.90;;;;;;5048428;28;20069;-88
2023/05/03 02:00:41;;;;;;;25.25;14.95;;;6.50;99.90;;;;;;5050113;28;20068;-87
2023/05/03 02:03:33;;;;;;;25.60;13.95;;;6.50;99.90;;;;;;5042776;28;20053;-88
2023/05/03 02:06:21;;;;;;;28.10;15.80;;;6.40;99.90;;;;;;5041748;28;20084;-81
2023/05/03 02:09:08;;;;;;;26.38;14.70;;;6.40;99.90;;;;;;5058187;28;20129;-81
2023/05/03 02:11:55;;;;;;;27.67;16.38;;;6.40;99.90;;;;;;5059050;28;20095;-87
2023/05/03 02:14:42;;;;;;;26.67;15.70;;;6.40;99.90;;;;;;5041731;28;20040;-82
2023/05/03 02:17:33;;;;;;;30.58;16.08;;;6.30;99.90;;;;;;5067690;28;20083;-85
2023/05/03 02:20:20;;;;;;;34.97;15.40;;;6.20;99.90;;;;;;5056970;28;20048;-87
2023/05/03 02:23:09;;;;;;;27.08;16.17;;;6.10;99.90;;;;;;5052726;28;20053;-87
2023/05/03 02:25:59;;;;;;;34.15;17.45;;;6.10;99.90;;;;;;5032251;28;20116;-88
2023/05/03 02:28:46;;;;;;;32.40;16.25;;;6.10;99.90;;;;;;5045667;28;20687;-88
2023/05/03 02:31:33;;;;;;;31.80;16.40;;;6.10;99.90;;;;;;5034042;28;20125;-89
2023/05/03 02:34:24;;;;;;;30.40;17.75;;;6.00;99.90;;;;;;5034433;28;20132;-88
2023/05/03 02:37:13;;;;;;;32.70;17.73;;;6.00;99.90;;;;;;5032194;28;20065;-88
2023/05/03 02:40:00;;;;;;;40.15;18.83;;;6.00;99.90;;;;;;5020299;28;20103;-87
2023/05/03 02:42:48;;;;;;;37.17;17.40;;;6.00;99.90;;;;;;5033648;28;20049;-89
2023/05/03 02:45:35;;;;;;;34.08;18.77;;;6.10;99.90;;;;;;5039017;28;20476;-90
2023/05/03 02:48:25;;;;;;;35.67;18.38;;;6.00;99.90;;;;;;5018198;28;20092;-89
2023/05/03 02:51:12;;;;;;;33.85;18.90;;;6.00;99.90;;;;;;5031305;28;20060;-87
2023/05/03 02:54:00;;;;;;;37.10;18.95;;;6.00;99.90;;;;;;5022204;28;20052;-90
2023/05/03 02:56:47;;;;;;;40.58;20.00;;;6.00;99.90;;;;;;5033233;28;20750;-86
2023/05/03 02:59:34;;;;;;;35.72;19.67;;;6.00;99.90;;;;;;5028700;28;20097;-89
2023/05/03 03:02:24;;;;;;;41.35;19.73;;;6.00;99.90;;;;;;5028275;28;20057;-86
2023/05/03 03:05:11;;;;;;;32.83;18.38;;;6.00;99.90;;;;;;5028498;28;20037;-87
2023/05/03 03:07:58;;;;;;;41.10;19.85;;;5.90;99.90;;;;;;5039004;28;20050;-86
2023/05/03 03:10:45;;;;;;;41.05;20.05;;;5.80;99.90;;;;;;5036363;28;20064;-86
2023/05/03 03:13:33;;;;;;;41.17;21.65;;;5.80;99.90;;;;;;5028916;28;20053;-83
2023/05/03 03:16:20;;;;;;;42.55;21.27;;;5.90;99.90;;;;;;5046033;28;20080;-87
2023/05/03 03:19:07;;;;;;;39.50;20.35;;;5.80;99.90;;;;;;5045026;28;20057;-85
2023/05/03 03:21:55;;;;;;;37.78;21.00;;;5.80;99.90;;;;;;5040755;28;20411;-88
2023/05/03 03:24:42;;;;;;;45.88;22.67;;;5.70;99.90;;;;;;5039544;28;20099;-87
2023/05/03 03:27:32;;;;;;;41.72;21.90;;;5.70;99.90;;;;;;5021964;28;20048;-88
2023/05/03 03:30:21;;;;;;;46.70;22.55;;;5.70;99.90;;;;;;5036108;28;20072;-88
2023/05/03 03:33:10;;;;;;;47.88;22.40;;;5.80;99.90;;;;;;5041633;28;20053;-88
2023/05/03 03:36:00;;;;;;;49.35;22.52;;;5.90;99.90;;;;;;5033433;28;20045;-85
2023/05/03 03:38:50;;;;;;;51.88;23.73;;;6.00;99.90;;;;;;5013896;28;20057;-86
2023/05/03 03:41:37;;;;;;;47.83;23.80;;;5.90;99.90;;;;;;5040601;28;20053;-87
2023/05/03 03:44:25;;;;;;;55.92;24.13;;;6.00;99.90;;;;;;5032103;28;20038;-81
2023/05/03 03:47:14;;;;;;;50.78;24.45;;;6.00;99.90;;;;;;5046036;28;20065;-86
2023/05/03 03:50:01;;;;;;;48.35;23.17;;;6.00;99.90;;;;;;5039383;28;20057;-81
2023/05/03 03:52:51;;;;;;;53.85;25.60;;;6.00;99.90;;;;;;5049152;28;20234;-88
2023/05/03 03:55:38;;;;;;;52.40;25.98;;;6.10;99.90;;;;;;5042176;28;20041;-84
2023/05/03 03:58:25;;;;;;;55.10;25.02;;;6.00;99.90;;;;;;5041749;28;20461;-87
2023/05/03 04:01:13;;;;;;;51.97;25.50;;;5.90;99.90;;;;;;5039276;28;20057;-85
2023/05/03 04:04:00;;;;;;;49.13;24.08;;;5.80;99.90;;;;;;5030860;28;20163;-88
2023/05/03 04:06:47;;;;;;;48.58;24.50;;;5.70;99.90;;;;;;5027727;28;20060;-86
2023/05/03 04:09:35;;;;;;;51.58;23.17;;;5.70;99.90;;;;;;5031726;28;20468;-88
2023/05/03 04:12:24;;;;;;;52.45;25.08;;;5.60;99.90;;;;;;5030943;28;20110;-88
2023/05/03 04:15:12;;;;;;;55.42;25.60;;;5.60;99.90;;;;;;5034222;28;20053;-87
2023/05/03 04:17:59;;;;;;;57.70;26.52;;;5.70;99.90;;;;;;5019142;28;20063;-88
2023/05/03 04:20:47;;;;;;;62.33;27.35;;;5.80;99.90;;;;;;5040722;28;20424;-87
2023/05/03 04:23:34;;;;;;;57.05;26.45;;;5.90;99.90;;;;;;5037426;28;20048;-89
2023/05/03 04:26:26;;;;;;;63.45;28.80;;;6.10;99.90;;;;;;5027200;28;20060;-89
2023/05/03 04:29:18;;;;;;;62.40;28.00;;;6.20;99.90;;;;;;5037254;28;20072;-90
2023/05/03 04:32:06;;;;;;;55.60;24.63;;;6.30;99.90;;;;;;5033731;28;20033;-88
2023/05/03 04:34:53;;;;;;;54.63;27.00;;;6.40;99.90;;;;;;5045857;28;20364;-87
2023/05/03 04:37:43;;;;;;;59.85;27.90;;;6.50;99.90;;;;;;5038508;28;20045;-87
2023/05/03 04:40:30;;;;;;;54.97;23.98;;;6.60;99.90;;;;;;5024352;28;20068;-89
2023/05/03 04:43:17;;;;;;;53.90;27.17;;;6.70;99.90;;;;;;5021843;28;20041;-89
2023/05/03 04:46:04;;;;;;;48.97;25.77;;;6.70;99.90;;;;;;5033913;28;20098;-87
2023/05/03 04:48:52;;;;;;;53.42;26.42;;;6.80;99.90;;;;;;5029578;28;20060;-89
2023/05/03 04:51:39;;;;;;;43.30;24.33;;;6.90;99.90;;;;;;5041176;28;20054;-86
2023/05/03 04:54:26;;;;;;;52.13;24.75;;;6.90;99.90;;;;;;5037464;28;20065;-89
2023/05/03 04:57:14;;;;;;;50.35;22.85;;;6.90;99.90;;;;;;5047546;28;20081;-87
2023/05/03 05:00:03;;;;;;;46.45;24.00;;;7.00;99.90;;;;;;5041176;28;20076;-88
2023/05/03 05:02:52;;;;;;;39.78;22.92;;;7.00;99.90;;;;;;5026546;28;20049;-90
2023/05/03 05:05:41;;;;;;;45.95;22.77;;;7.10;99.90;;;;;;5040753;28;20056;-89
2023/05/03 05:08:28;;;;;;;42.35;21.25;;;7.10;99.90;;;;;;5032741;28;20050;-87
2023/05/03 05:11:19;;;;;;;42.50;21.88;;;7.20;99.90;;;;;;5028208;28;20049;-88
2023/05/03 05:14:06;;;;;;;34.58;21.27;;;7.20;99.90;;;;;;5021408;28;20102;-89
2023/05/03 05:16:54;;;;;;;47.90;21.40;;;7.30;99.90;;;;;;5032253;28;20131;-89
2023/05/03 05:19:41;;;;;;;36.55;20.83;;;7.30;99.90;;;;;;5038514;28;20376;-88
2023/05/03 05:22:28;;;;;;;43.28;21.23;;;7.40;99.90;;;;;;5040364;28;20049;-85
2023/05/03 05:25:15;;;;;;;36.13;20.52;;;7.50;99.90;;;;;;5038617;28;20142;-89
2023/05/03 05:28:03;;;;;;;38.70;19.40;;;7.60;99.90;;;;;;5044173;28;20048;-90
2023/05/03 05:30:53;;;;;;;38.08;20.90;;;7.80;99.90;;;;;;5034906;28;20092;-88
2023/05/03 05:33:40;;;;;;;36.80;17.90;;;7.80;99.90;;;;;;5032407;28;20050;-89
2023/05/03 05:36:29;;;;;;;30.13;18.10;;;7.90;99.90;;;;;;5027724;28;20056;-88
2023/05/03 05:39:19;;;;;;;32.72;18.55;;;8.00;99.90;;;;;;5035839;28;20510;-88
2023/05/03 05:42:07;;;;;;;34.33;17.65;;;8.20;99.90;;;;;;5041908;28;20045;-90
2023/05/03 05:44:56;;;;;;;32.33;17.25;;;8.30;99.90;;;;;;5047049;28;20046;-87
2023/05/03 05:47:45;;;;;;;28.38;16.83;;;8.30;99.90;;;;;;5050667;28;20050;-81
2023/05/03 05:50:37;;;;;;;31.48;17.52;;;8.40;99.90;;;;;;5054609;28;20120;-87
2023/05/03 05:53:24;;;;;;;26.48;17.48;;;8.50;99.90;;;;;;5058728;28;20052;-86
2023/05/03 05:56:11;;;;;;;30.42;17.23;;;8.50;66.40;;;;;;5046927;28;20111;-88
2023/05/03 05:58:59;;;;;;;29.48;18.25;;;8.60;1.00;;;;;;5049633;28;20045;-89
2023/05/03 06:01:48;;;;;;;26.33;16.90;;;8.70;99.90;;;;;;5030057;28;20107;-87
2023/05/03 06:04:37;;;;;;;26.73;17.45;;;8.80;99.90;;;;;;5044345;28;20111;-87
2023/05/03 06:07:25;;;;;;;26.75;17.38;;;8.90;99.90;;;;;;5035090;28;20469;-89
2023/05/03 06:10:12;;;;;;;31.08;17.42;;;8.90;99.90;;;;;;5046031;28;20052;-86
2023/05/03 06:12:59;;;;;;;25.08;17.35;;;8.80;99.90;;;;;;5027308;28;20072;-85
2023/05/03 06:15:47;;;;;;;26.58;17.45;;;8.80;1.00;;;;;;5033378;28;20056;-87
2023/05/03 06:18:34;;;;;;;28.63;16.58;;;8.80;99.90;;;;;;5030279;28;20049;-87
2023/05/03 06:21:25;;;;;;;22.02;16.00;;;8.70;2.10;;;;;;5033777;28;20045;-88
2023/05/03 06:24:19;;;;;;;28.52;18.17;;;8.70;1.00;;;;;;5035091;28;20038;-90
2023/05/03 06:27:07;;;;;;;27.45;17.58;;;8.70;99.90;;;;;;5028466;28;20052;-87
2023/05/03 06:29:54;;;;;;;26.30;17.60;;;8.70;99.90;;;;;;5019103;28;20041;-86
2023/05/03 06:32:42;;;;;;;30.05;17.92;;;8.70;99.90;;;;;;5040445;28;20059;-88
2023/05/03 06:35:31;;;;;;;28.05;18.30;;;8.70;99.90;;;;;;5034197;28;20112;-85
2023/05/03 06:38:21;;;;;;;27.05;17.92;;;8.70;20.10;;;;;;5033233;28;20060;-85
2023/05/03 06:41:08;;;;;;;32.45;17.55;;;8.80;25.80;;;;;;5027622;28;20058;-87
2023/05/03 06:43:58;;;;;;;24.98;16.10;;;8.90;1.00;;;;;;5034416;28;20077;-89
2023/05/03 06:46:45;;;;;;;26.88;16.75;;;9.00;1.00;;;;;;5036815;28;20045;-88
2023/05/03 06:49:32;;;;;;;25.10;16.65;;;9.20;1.00;;;;;;5038675;28;20049;-88
2023/05/03 06:52:19;;;;;;;30.30;16.23;;;9.30;99.90;;;;;;5018540;28;20084;-86
2023/05/03 06:55:07;;;;;;;24.92;16.92;;;9.40;99.90;;;;;;5032642;28;20041;-90
2023/05/03 06:57:56;;;;;;;27.20;15.55;;;9.50;99.90;;;;;;5026658;28;20504;-89
2023/05/03 07:00:45;;;;;;;23.65;16.10;;;9.70;1.00;;;;;;5021369;28;20065;-86
2023/05/03 07:03:32;;;;;;;29.90;17.00;;;9.70;1.00;;;;;;5028733;28;20065;-87
2023/05/03 07:06:22;;;;;;;23.70;16.35;;;9.70;99.90;;;;;;5035362;28;20385;-87
2023/05/03 07:09:09;;;;;;;23.95;15.30;;;9.90;99.90;;;;;;5031160;28;20049;-89
2023/05/03 07:11:57;;;;;;;22.00;14.73;;;10.10;99.90;;;;;;5028447;28;20070;-89
2023/05/03 07:14:46;;;;;;;26.55;15.73;;;10.20;87.30;;;;;;5010317;28;20053;-88
2023/05/03 07:17:34;;;;;;;26.30;16.92;;;10.10;1.00;;;;;;5032908;28;20046;-88
2023/05/03 07:20:21;;;;;;;24.95;15.20;;;10.20;1.00;;;;;;5033719;28;20046;-88
2023/05/03 07:23:08;;;;;;;24.48;16.42;;;10.40;1.00;;;;;;5036287;28;20076;-87
2023/05/03 07:25:56;;;;;;;25.08;17.05;;;10.40;99.90;;;;;;5039927;28;20049;-87
2023/05/03 07:28:43;;;;;;;24.20;15.38;;;10.50;99.90;;;;;;5028272;28;20046;-89
2023/05/03 07:31:30;;;;;;;22.80;15.60;;;10.70;99.90;;;;;;5045303;28;20057;-87
2023/05/03 07:34:18;;;;;;;22.38;15.68;;;10.90;99.90;;;;;;5024453;28;20129;-85
2023/05/03 07:37:07;;;;;;;24.25;16.23;;;11.20;99.90;;;;;;5043204;28;20465;-87
2023/05/03 07:39:55;;;;;;;22.95;15.45;;;11.50;80.10;;;;;;5044678;28;20048;-88
2023/05/03 07:42:42;;;;;;;18.98;14.30;;;11.50;1.00;;;;;;5036013;28;20052;-89
2023/05/03 07:45:30;;;;;;;20.45;14.02;;;12.00;1.00;;;;;;5034722;28;20124;-89
2023/05/03 07:48:17;;;;;;;19.15;13.68;;;12.50;1.00;;;;;;5030198;28;20052;-89
2023/05/03 07:51:07;;;;;;;17.10;13.15;;;12.80;99.90;;;;;;5031034;28;20056;-84
2023/05/03 07:53:55;;;;;;;16.40;13.02;;;13.00;99.90;;;;;;5032835;28;20120;-87
2023/05/03 07:56:42;;;;;;;16.77;12.32;;;13.20;99.90;;;;;;5017985;28;20263;-86
2023/05/03 07:59:30;;;;;;;14.57;12.05;;;13.20;99.90;;;;;;5035796;28;20049;-86
2023/05/03 08:02:18;;;;;;;15.52;11.82;;;13.30;99.90;;;;;;5039528;28;20060;-90
2023/05/03 08:05:06;;;;;;;15.35;11.52;;;13.30;63.70;;;;;;5030058;28;20057;-89
2023/05/03 08:07:56;;;;;;;15.52;11.93;;;13.60;22.40;;;;;;5029656;28;20153;-90
2023/05/03 08:10:44;;;;;;;14.52;12.55;;;13.70;1.00;;;;;;5039252;28;20056;-89
2023/05/03 08:13:31;;;;;;;14.55;10.57;;;14.00;1.00;;;;;;5035321;28;20072;-85
2023/05/03 08:16:22;;;;;;;14.48;11.13;;;14.70;1.00;;;;;;5024444;28;20065;-90
2023/05/03 08:19:09;;;;;;;15.57;11.02;;;15.30;1.00;;;;;;5028764;28;20053;-87
2023/05/03 08:21:57;;;;;;;14.70;10.43;;;16.20;1.00;;;;;;5037207;28;20045;-89
2023/05/03 08:24:45;;;;;;;15.18;10.18;;;16.60;99.90;;;;;;5031265;28;20052;-87
2023/05/03 08:27:36;;;;;;;13.88;10.82;;;16.50;99.90;;;;;;5037515;28;20044;-88
2023/05/03 08:30:24;;;;;;;13.40;9.57;;;16.30;99.90;;;;;;5031939;28;20059;-89
2023/05/03 08:33:14;;;;;;;13.70;9.10;;;16.90;99.90;;;;;;5035918;28;20045;-88
2023/05/03 08:36:02;;;;;;;11.60;9.70;;;17.10;99.90;;;;;;5043473;28;20060;-88
2023/05/03 08:38:49;;;;;;;12.55;9.43;;;18.00;99.90;;;;;;5037772;28;20048;-86
2023/05/03 08:41:41;;;;;;;15.80;10.73;;;17.60;99.90;;;;;;5043535;28;20045;-87
2023/05/03 08:44:34;;;;;;;13.53;10.43;;;17.00;99.90;;;;;;5036111;28;20049;-88
2023/05/03 08:47:21;;;;;;;13.95;9.98;;;16.40;99.90;;;;;;5023260;28;20144;-85
2023/05/03 08:50:13;;;;;;;14.05;10.30;;;16.40;99.90;;;;;;5034336;28;20100;-88
2023/05/03 08:53:03;;;;;;;12.68;9.88;;;17.10;99.90;;;;;;5034211;28;20049;-86
2023/05/03 08:55:51;;;;;;;11.27;9.45;;;18.50;99.90;;;;;;5034414;28;20139;-86
2023/05/03 08:58:39;;;;;;;9.52;7.97;;;19.50;99.90;;;;;;5028623;28;20466;-87
2023/05/03 09:01:27;;;;;;;11.55;9.32;;;19.90;99.90;;;;;;5030579;28;20041;-86
2023/05/03 09:04:16;;;;;;;12.68;9.30;;;19.70;99.90;;;;;;5039016;28;20214;-87
2023/05/03 09:07:15;;;;;;;11.27;8.00;;;19.70;99.90;;;;;;5030630;28;20045;-89
2023/05/03 09:10:15;;;;;;;12.57;9.05;;;19.70;99.90;;;;;;5018282;28;20056;-88
2023/05/03 09:13:03;;;;;;;10.43;9.10;;;20.00;99.90;;;;;;5024529;28;20041;-87
2023/05/03 09:15:54;;;;;;;11.85;8.90;;;20.30;99.90;;;;;;5030576;28;20499;-86
2023/05/03 09:18:57;;;;;;;8.88;7.32;;;20.60;99.90;;;;;;5034370;28;20067;-88
2023/05/03 09:21:48;;;;;;;11.32;8.85;;;21.40;99.90;;;;;;5035826;28;20037;-87
2023/05/03 09:24:35;;;;;;;10.00;7.90;;;21.50;99.90;;;;;;5041577;28;20172;-87
2023/05/03 09:27:24;;;;;;;12.18;7.60;;;21.40;99.90;;;;;;5028693;28;20345;-86
2023/05/03 09:30:18;;;;;;;8.18;7.00;;;21.60;99.90;;;;;;5035043;28;20041;-86
2023/05/03 09:33:06;;;;;;;8.63;7.18;;;22.40;99.90;;;;;;5046021;28;20453;-89
2023/05/03 09:35:59;;;;;;;8.68;7.38;;;22.40;98.10;;;;;;5029338;28;20037;-88
2023/05/03 09:38:47;;;;;;;7.60;6.85;;;22.50;92.20;;;;;;5032942;28;20128;-89
2023/05/03 09:41:34;;;;;;;11.73;7.40;;;22.40;92.40;;;;;;5032363;28;20468;-87
2023/05/03 09:44:47;;;;;;;10.10;7.15;;;22.90;85.80;;;;;;5039538;28;20051;-87
2023/05/03 09:47:52;;;;;;;10.05;7.32;;;22.80;62.20;;;;;;5030205;28;20042;-89
2023/05/03 09:50:41;;;;;;;8.73;7.82;;;22.20;58.30;;;;;;5009946;28;20049;-89
2023/05/03 09:53:31;;;;;;;8.95;7.50;;;22.20;65.10;;;;;;5032648;28;20048;-87
2023/05/03 09:56:21;;;;;;;8.52;7.38;;;22.20;60.50;;;;;;5036794;28;20033;-87
2023/05/03 09:59:09;;;;;;;9.93;7.70;;;22.40;42.00;;;;;;5033990;28;20060;-88
2023/05/03 10:02:00;;;;;;;10.38;7.40;;;22.40;40.70;;;;;;5019506;28;20084;-88
2023/05/03 10:04:55;;;;;;;7.78;7.03;;;22.90;47.60;;;;;;5033102;28;20046;-86
2023/05/03 10:07:44;;;;;;;12.40;7.93;;;22.40;31.60;;;;;;5034193;28;20041;-88
2023/05/03 10:10:35;;;;;;;9.82;6.85;;;22.20;32.70;;;;;;5048266;28;20056;-86
2023/05/03 10:13:25;;;;;;;10.18;6.78;;;22.00;25.70;;;;;;5041037;28;20049;-87
2023/05/03 10:16:18;;;;;;;10.43;6.80;;;21.50;26.80;;;;;;5030926;28;20099;-90
2023/05/03 10:19:06;;;;;;;8.50;7.03;;;22.20;32.10;;;;;;5023508;28;20057;-88
2023/05/03 10:22:11;;;;;;;9.55;6.97;;;23.20;21.10;;;;;;5031707;28;20049;-85
2023/05/03 10:24:59;;;;;;;12.98;6.93;;;20.80;14.30;;;;;;5041293;28;20045;-89
2023/05/03 10:27:47;;;;;;;13.93;6.75;;;19.80;19.40;;;;;;5033902;28;20060;-87
2023/05/03 10:30:39;;;;;;;7.88;6.15;;;19.10;21.60;;;;;;5034540;28;20057;-88
2023/05/03 10:33:35;;;;;;;7.35;6.15;;;18.90;26.90;;;;;;5035623;28;20057;-88
2023/05/03 10:36:25;;;;;;;7.78;6.10;;;19.50;36.70;;;;;;5035395;28;20492;-87
2023/05/03 10:39:29;;;;;;;9.55;6.00;;;20.60;24.40;;;;;;5027980;28;20459;-87
2023/05/03 10:42:25;;;;;;;11.35;6.25;;;21.10;16.80;;;;;;5024821;28;20040;-87
2023/05/03 10:45:21;;;;;;;7.40;6.38;;;22.10;21.10;;;;;;5037394;28;20071;-87
2023/05/03 10:48:11;;;;;;;10.25;5.75;;;23.30;14.70;;;;;;5031104;28;20062;-89
2023/05/03 10:51:32;;;;;;;9.20;6.20;;;21.70;5.20;;;;;;5021704;28;20045;-88
2023/05/03 10:54:20;;;;;;;7.63;5.88;;;20.80;3.40;;;;;;5028522;28;20034;-84
2023/05/03 10:57:10;;;;;;;6.13;5.50;;;21.70;9.30;;;;;;5029389;28;20045;-84
2023/05/03 10:59:58;;;;;;;7.43;6.13;;;22.40;7.40;;;;;;5025161;28;20045;-81
2023/05/03 11:03:14;;;;;;;8.35;5.75;;;23.20;2.60;;;;;;5030087;28;20183;-89
2023/05/03 11:06:04;;;;;;;8.00;5.28;;;24.00;1.00;;;;;;5034083;28;20064;-88
2023/05/03 11:08:53;;;;;;;7.57;5.50;;;22.20;1.00;;;;;;5032916;28;20045;-89
2023/05/03 11:11:42;;;;;;;7.07;5.30;;;22.20;1.00;;;;;;5006616;28;20054;-88
2023/05/03 11:14:29;;;;;;;6.75;5.75;;;23.30;1.00;;;;;;5034709;28;20045;-90
2023/05/03 11:17:16;;;;;;;7.38;5.28;;;23.60;1.00;;;;;;5033022;28;20057;-88
2023/05/03 11:20:10;;;;;;;8.50;5.60;;;24.20;1.00;;;;;;5028518;28;20385;-89
2023/05/03 11:22:57;;;;;;;9.35;5.65;;;24.10;1.00;;;;;;5031787;28;20528;-89
2023/05/03 11:25:44;;;;;;;8.35;5.63;;;23.90;1.00;;;;;;5040825;28;20503;-86
2023/05/03 11:28:32;;;;;;;7.97;5.10;;;23.90;1.00;;;;;;5032186;28;20042;-88
2023/05/03 11:31:20;;;;;;;5.95;5.35;;;23.90;1.00;;;;;;5039330;28;20043;-88
2023/05/03 11:34:14;;;;;;;7.40;5.80;;;22.00;1.00;;;;;;5033000;28;20049;-86
2023/05/03 11:37:03;;;;;;;6.63;5.30;;;21.20;1.00;;;;;;5034605;28;20472;-89
2023/05/03 11:39:53;;;;;;;6.97;5.25;;;21.00;1.00;;;;;;5043147;28;20038;-86
2023/05/03 11:42:53;;;;;;;6.57;5.25;;;21.00;1.00;;;;;;5018811;28;20037;-89
2023/05/03 11:45:45;;;;;;;5.32;4.53;;;21.10;1.00;;;;;;5035122;28;20384;-91
2023/05/03 11:48:33;;;;;;;;;;;22.00;1.00;;;;;;5031550;28;20450;-85
2023/05/03 11:51:22;;;;;;;7.45;5.43;;;20.60;1.00;;;;;;5048250;28;19925;-88
2023/05/03 11:54:10;;;;;;;11.05;5.13;;;19.80;1.00;;;;;;5032644;28;20067;-86
2023/05/03 11:57:15;;;;;;;9.63;5.53;;;19.70;1.00;;;;;;5017031;28;20134;-87
2023/05/03 12:00:16;;;;;;;6.88;5.25;;;19.20;1.00;;;;;;5009173;28;20628;-86
2023/05/03 12:03:07;;;;;;;6.43;5.18;;;20.30;1.00;;;;;;5030499;28;20056;-86
2023/05/03 12:05:55;;;;;;;9.95;5.90;;;20.00;1.00;;;;;;5029327;28;20109;-85
2023/05/03 12:08:44;;;;;;;7.93;5.63;;;18.60;1.00;;;;;;5027390;28;20064;-85
2023/05/03 12:11:42;;;;;;;7.63;5.57;;;18.00;1.00;;;;;;5017366;28;20064;-85
2023/05/03 12:14:56;;;;;;;11.18;5.63;;;20.10;1.00;;;;;;5018788;28;20049;-85
2023/05/03 12:17:45;;;;;;;8.73;5.55;;;20.40;1.00;;;;;;5034393;28;20415;-89
2023/05/03 12:20:38;;;;;;;6.47;4.78;;;19.90;1.00;;;;;;5026799;28;20046;-87
2023/05/03 12:23:48;;;;;;;5.25;4.30;;;21.60;1.00;;;;;;5028816;28;20042;-88
2023/05/03 12:26:37;;;;;;;6.20;3.75;;;23.50;1.00;;;;;;5017936;28;20045;-87
2023/05/03 12:29:24;;;;;;;5.97;4.45;;;24.40;1.00;;;;;;5036334;28;20061;-83
2023/05/03 12:32:15;;;;;;;5.65;3.47;;;24.10;1.00;;;;;;5026515;28;20046;-88
2023/05/03 12:35:07;;;;;;;5.68;4.22;;;25.20;1.00;;;;;;5035631;28;20057;-87
2023/05/03 12:38:01;;;;;;;5.35;4.10;;;24.20;1.00;;;;;;5020763;28;20057;-88
2023/05/03 12:40:51;;;;;;;6.10;4.07;;;22.60;1.00;;;;;;5034628;28;20053;-89
2023/05/03 12:43:39;;;;;;;5.70;3.67;;;22.30;1.00;;;;;;5051073;28;20036;-88
2023/05/03 12:46:29;;;;;;;5.72;4.50;;;23.70;1.00;;;;;;5039773;28;20049;-88
2023/05/03 12:49:21;;;;;;;4.67;4.17;;;24.90;1.00;;;;;;5030548;28;20103;-88
2023/05/03 12:52:10;;;;;;;6.93;3.72;;;23.90;1.00;;;;;;5035029;28;20340;-89
2023/05/03 12:55:17;;;;;;;4.95;4.43;;;23.10;1.00;;;;;;5035648;28;20364;-87
2023/05/03 12:58:05;;;;;;;5.10;3.90;;;23.40;1.00;;;;;;5041810;28;20049;-86
2023/05/03 13:01:12;;;;;;;6.80;4.15;;;22.70;1.00;;;;;;5037552;28;20045;-88
2023/05/03 13:04:20;;;;;;;6.55;4.82;;;22.80;1.00;;;;;;5035233;28;20037;-84
2023/05/03 13:07:28;;;;;;;5.50;4.53;;;22.50;1.00;;;;;;5035464;28;20130;-89
2023/05/03 13:10:23;;;;;;;5.50;4.32;;;22.80;1.00;;;;;;5029771;28;20044;-88
2023/05/03 13:13:10;;;;;;;8.63;3.90;;;24.00;1.00;;;;;;5051079;28;20072;-88
2023/05/03 13:15:58;;;;;;;4.68;3.85;;;25.30;1.00;;;;;;5029559;28;20042;-86
2023/05/03 13:18:47;;;;;;;6.53;4.43;;;25.30;1.00;;;;;;5019741;28;20041;-85
2023/05/03 13:21:34;;;;;;;6.40;3.92;;;24.80;1.00;;;;;;5028210;28;20042;-87
2023/05/03 13:24:24;;;;;;;4.18;3.67;;;24.30;1.00;;;;;;5031351;28;20122;-87
2023/05/03 13:27:12;;;;;;;3.92;3.50;;;24.40;1.00;;;;;;5039099;28;20045;-86
2023/05/03 13:30:01;;;;;;;6.05;3.72;;;24.80;1.00;;;;;;5035881;28;20169;-84
2023/05/03 13:32:51;;;;;;;4.97;3.65;;;23.50;1.00;;;;;;5040856;28;20061;-85
2023/05/03 13:35:38;;;;;;;5.30;3.28;;;21.70;1.00;;;;;;5040770;28;20042;-87
2023/05/03 13:38:26;;;;;;;4.63;3.20;;;22.10;1.00;;;;;;5031832;28;20052;-89
2023/05/03 13:41:15;;;;;;;5.05;3.13;;;23.90;1.00;;;;;;5030873;28;20464;-87
2023/05/03 13:44:05;;;;;;;4.07;3.60;;;25.00;1.00;;;;;;5032635;28;20072;-87
2023/05/03 13:46:58;;;;;;;4.22;3.30;;;25.60;1.00;;;;;;5030914;28;20117;-87
2023/05/03 13:49:47;;;;;;;5.97;2.88;;;25.50;1.00;;;;;;5031749;28;20053;-86
2023/05/03 13:52:35;;;;;;;2.95;2.75;;;26.10;1.00;;;;;;5033930;28;20054;-88
2023/05/03 13:55:25;;;;;;;4.72;2.47;;;26.60;1.00;;;;;;5024784;28;20076;-86
2023/05/03 13:58:12;;;;;;;3.33;2.63;;;25.10;1.00;;;;;;5036710;28;20053;-86
2023/05/03 14:01:00;;;;;;;4.82;3.33;;;26.00;1.00;;;;;;5021296;28;20064;-87
2023/05/03 14:03:48;;;;;;;8.70;3.47;;;25.10;1.00;;;;;;5035748;28;20046;-86
2023/05/03 14:06:36;;;;;;;4.45;2.92;;;24.60;1.00;;;;;;5029302;28;20121;-82
2023/05/03 14:09:27;;;;;;;4.60;3.67;;;24.50;1.00;;;;;;5042889;28;20044;-87
2023/05/03 14:12:15;;;;;;;3.53;2.50;;;24.40;1.00;;;;;;5040047;28;20060;-88
2023/05/03 14:15:04;;;;;;;3.05;2.50;;;25.90;1.00;;;;;;5023002;28;20077;-86
2023/05/03 14:17:51;;;;;;;2.70;2.50;;;25.80;1.00;;;;;;5040395;28;20049;-88
2023/05/03 14:20:43;;;;;;;3.55;2.80;;;25.00;1.00;;;;;;5051058;28;20480;-87
2023/05/03 14:23:31;;;;;;;4.65;3.30;;;24.30;1.00;;;;;;5041252;28;20063;-88
2023/05/03 14:26:19;;;;;;;3.25;2.65;;;24.30;1.00;;;;;;5040134;28;20109;-90
2023/05/03 14:29:08;;;;;;;4.70;2.95;;;25.50;1.00;;;;;;5050711;28;20045;-89
2023/05/03 14:31:56;;;;;;;3.63;2.50;;;26.10;1.00;;;;;;5025053;28;20042;-85
2023/05/03 14:34:43;;;;;;;3.67;2.63;;;26.80;1.00;;;;;;5026663;28;20109;-87
2023/05/03 14:37:32;;;;;;;4.97;3.20;;;26.00;1.00;;;;;;5038030;28;20469;-89
2023/05/03 14:40:19;;;;;;;3.70;2.78;;;23.80;1.00;;;;;;5050143;28;20052;-86